Time;durP1;ratioP1;P1;durP2;ratioP2;P2;SDS_P1;SDS_P2;PMS_P1;PMS_P2;Temp;Humidity;BMP_temperature;BMP_pressure;BME280_temperature;BME280_humidity;BME280_pressure;Samples;Min_cycle;Max_cycle;Signal;HPM_P1;HPM_P2
2021/06/28 00:00:12;;;;;;;5.38;4.95;;;;;;;21.72;52.48;101171.72;698925;28;22568;-63
2021/06/28 00:00:35;;;;;;;5.45;4.85;;;;;;;21.75;52.28;101164.88;698092;28;41139;-63
2021/06/28 00:00:56;;;;;;;4.88;4.57;;;;;;;21.75;52.33;101175.88;698623;28;46377;-63
2021/06/28 00:01:18;;;;;;;5.00;4.60;;;;;;;21.75;52.31;101164.88;698970;28;23433;-63
2021/06/28 00:01:39;;;;;;;5.18;4.78;;;;;;;21.75;52.25;101164.88;698418;28;39206;-63
2021/06/28 00:02:00;;;;;;;5.25;4.85;;;;;;;21.76;52.21;101174.81;698830;28;1787;-63
2021/06/28 00:02:21;;;;;;;5.13;4.70;;;;;;;21.77;52.40;101170.97;698698;28;23504;-63
2021/06/28 00:02:42;;;;;;;5.03;4.50;;;;;;;21.76;52.27;101166.56;699222;28;966;-63
2021/06/28 00:03:05;;;;;;;5.30;4.80;;;;;;;21.76;52.25;101166.56;700258;28;892;-63
2021/06/28 00:03:26;;;;;;;5.65;5.15;;;;;;;21.77;52.27;101168.22;697617;28;70544;-63
2021/06/28 00:03:47;;;;;;;5.47;4.88;;;;;;;21.77;52.45;101173.72;698669;28;21573;-63
2021/06/28 00:04:08;;;;;;;5.13;4.63;;;;;;;21.76;52.38;101167.38;698220;28;23503;-63
2021/06/28 00:04:30;;;;;;;5.05;4.70;;;;;;;21.75;52.34;101168.44;698882;28;22186;-63
2021/06/28 00:04:51;;;;;;;5.32;4.88;;;;;;;21.74;52.47;101172.28;698194;28;47278;-63
2021/06/28 00:05:14;;;;;;;5.50;5.00;;;;;;;21.73;52.48;101170.63;698743;28;23474;-62
2021/06/28 00:05:35;;;;;;;5.60;5.13;;;;;;;21.71;52.45;101161.78;696801;28;69467;-63
2021/06/28 00:05:57;;;;;;;6.13;4.70;;;;;;;21.70;52.38;101160.09;700123;28;988;-63
2021/06/28 00:06:18;;;;;;;5.47;4.60;;;;;;;21.70;52.52;101167.53;698688;28;42336;-63
2021/06/28 00:06:39;;;;;;;5.10;4.70;;;;;;;21.70;52.47;101167.53;699204;28;22440;-63
2021/06/28 00:07:01;;;;;;;5.00;4.50;;;;;;;21.69;52.49;101168.59;699209;28;23713;-63
2021/06/28 00:07:22;;;;;;;4.85;4.35;;;;;;;21.66;52.71;101169.91;699398;28;23591;-63
2021/06/28 00:07:44;;;;;;;4.85;4.40;;;;;;;21.66;52.61;101164.44;698923;28;24328;-63
2021/06/28 00:08:07;;;;;;;4.68;4.22;;;;;;;21.65;52.64;101171.00;699335;28;15817;-63
2021/06/28 00:08:32;;;;;;;4.93;4.53;;;;;;;21.63;52.88;101164.91;698762;28;37855;-63
2021/06/28 00:08:53;;;;;;;5.30;4.80;;;;;;;21.61;52.80;101167.03;698992;28;5728;-63
2021/06/28 00:09:15;;;;;;;5.43;4.70;;;;;;;21.60;52.80;101162.63;699751;28;966;-63
2021/06/28 00:09:37;;;;;;;4.90;4.50;;;;;;;21.58;52.93;101162.88;699246;28;15755;-63
2021/06/28 00:09:58;;;;;;;4.78;4.40;;;;;;;21.57;52.97;101161.19;698609;28;46304;-63
2021/06/28 00:10:21;;;;;;;5.00;4.60;;;;;;;21.57;53.00;101163.13;699825;28;1303;-62
2021/06/28 00:10:42;;;;;;;4.97;4.57;;;;;;;21.54;52.91;101158.09;697794;28;49480;-63
2021/06/28 00:11:04;;;;;;;5.03;4.57;;;;;;;21.54;53.04;101156.19;699280;28;21070;-62
2021/06/28 00:11:26;;;;;;;5.32;4.55;;;;;;;21.54;52.88;101164.41;698505;28;45308;-63
2021/06/28 00:11:47;;;;;;;5.47;4.72;;;;;;;21.53;53.00;101161.91;698239;28;41623;-63
2021/06/28 00:12:09;;;;;;;5.45;4.63;;;;;;;21.52;52.94;101168.47;698788;28;23556;-62
2021/06/28 00:12:31;;;;;;;5.30;4.80;;;;;;;21.53;52.88;101159.16;698430;28;38412;-63
2021/06/28 00:12:54;;;;;;;5.00;4.53;;;;;;;21.52;52.73;101155.59;699371;28;1535;-63
2021/06/28 00:13:16;;;;;;;5.25;4.70;;;;;;;21.51;52.58;101161.31;699848;28;999;-63
2021/06/28 00:13:39;;;;;;;5.10;4.40;;;;;;;21.52;52.68;101160.22;699510;28;1918;-63
2021/06/28 00:14:01;;;;;;;5.03;4.63;;;;;;;21.51;52.73;101156.66;696964;28;68375;-63
2021/06/28 00:14:23;;;;;;;5.80;5.10;;;;;;;21.51;52.74;101164.91;696760;28;69497;-63
2021/06/28 00:14:44;;;;;;;5.15;4.72;;;;;;;21.52;52.88;101165.72;699960;28;22535;-63
2021/06/28 00:15:08;;;;;;;5.10;4.60;;;;;;;21.51;52.86;101159.41;698994;28;20893;-63
2021/06/28 00:15:31;;;;;;;6.32;5.05;;;;;;;21.51;53.00;101164.06;696303;28;92258;-63
2021/06/28 00:15:54;;;;;;;4.95;4.55;;;;;;;21.50;53.08;101167.88;697982;28;67485;-62
2021/06/28 00:16:15;;;;;;;5.38;4.97;;;;;;;21.48;52.94;101159.84;698123;28;40562;-63
2021/06/28 00:16:37;;;;;;;4.95;4.55;;;;;;;21.49;52.96;101166.22;699834;28;23475;-63
2021/06/28 00:16:58;;;;;;;5.13;4.72;;;;;;;21.48;52.99;101170.84;700197;28;1856;-63
2021/06/28 00:17:20;;;;;;;5.53;4.95;;;;;;;21.47;52.98;101163.66;699602;28;927;-63
2021/06/28 00:17:47;;;;;;;5.93;5.15;;;;;;;21.48;52.96;101156.28;698006;28;35403;-63
2021/06/28 00:18:15;;;;;;;6.25;4.93;;;;;;;21.48;53.03;101161.78;698504;28;61657;-63
2021/06/28 00:18:37;;;;;;;5.45;4.93;;;;;;;21.47;53.09;101166.41;700460;28;896;-63
2021/06/28 00:19:02;;;;;;;5.30;4.80;;;;;;;21.47;52.89;101162.84;699392;28;969;-63
2021/06/28 00:19:24;;;;;;;5.38;4.88;;;;;;;21.48;53.20;101168.09;695377;28;109499;-63
2021/06/28 00:19:45;;;;;;;5.10;4.68;;;;;;;21.47;53.02;101163.66;698196;28;44377;-63
2021/06/28 00:20:07;;;;;;;5.70;5.15;;;;;;;21.47;52.97;101166.41;699544;28;20510;-63
2021/06/28 00:20:28;;;;;;;5.30;4.90;;;;;;;21.49;53.00;101160.72;697358;28;68188;-63
2021/06/28 00:20:50;;;;;;;5.22;4.82;;;;;;;21.49;53.14;101163.47;699427;28;11810;-63
2021/06/28 00:21:12;;;;;;;5.20;4.72;;;;;;;21.48;52.96;101162.59;699618;28;16094;-63
2021/06/28 00:21:33;;;;;;;5.05;4.72;;;;;;;21.50;52.96;101160.47;699627;28;18249;-63
2021/06/28 00:21:54;;;;;;;5.13;4.72;;;;;;;21.50;52.86;101154.97;699230;28;9168;-63
2021/06/28 00:22:16;;;;;;;5.10;4.70;;;;;;;21.52;52.70;101163.84;698546;28;21541;-63
2021/06/28 00:22:38;;;;;;;5.47;5.00;;;;;;;21.52;52.77;101162.97;699184;28;26733;-63
2021/06/28 00:23:00;;;;;;;5.18;4.78;;;;;;;21.52;52.56;101158.34;697769;28;53128;-63
2021/06/28 00:23:21;;;;;;;5.10;4.80;;;;;;;21.52;52.72;101160.22;698907;28;22247;-63
2021/06/28 00:23:43;;;;;;;4.97;4.60;;;;;;;21.53;52.69;101161.91;698708;28;21630;-63
2021/06/28 00:24:05;;;;;;;5.18;4.78;;;;;;;21.53;52.73;101165.50;697826;28;44359;-63
2021/06/28 00:24:27;;;;;;;5.28;4.88;;;;;;;21.54;52.52;101158.09;699780;28;1017;-63
2021/06/28 00:24:49;;;;;;;5.60;5.10;;;;;;;21.54;52.55;101158.94;700351;28;928;-63
2021/06/28 00:25:12;;;;;;;5.63;5.13;;;;;;;21.55;52.52;101168.84;698878;28;22416;-63
2021/06/28 00:25:34;;;;;;;5.28;4.78;;;;;;;21.55;52.45;101168.84;697263;28;68757;-63
2021/06/28 00:25:55;;;;;;;4.60;4.20;;;;;;;21.56;52.52;101162.25;699844;28;7946;-63
2021/06/28 00:26:16;;;;;;;4.80;4.38;;;;;;;21.56;52.60;101159.50;699339;28;19436;-63
2021/06/28 00:26:38;;;;;;;5.15;4.63;;;;;;;21.56;52.67;101159.50;700627;28;2401;-63
2021/06/28 00:27:00;;;;;;;5.20;4.70;;;;;;;21.56;52.81;101162.25;698909;28;12311;-63
2021/06/28 00:27:23;;;;;;;5.47;4.97;;;;;;;21.56;52.84;101162.25;697098;28;69439;-63
2021/06/28 00:27:44;;;;;;;5.15;4.75;;;;;;;21.55;52.84;101160.59;697038;28;69519;-63
2021/06/28 00:28:07;;;;;;;4.97;4.57;;;;;;;21.53;52.95;101164.66;698142;28;45177;-63
2021/06/28 00:28:29;;;;;;;5.28;4.80;;;;;;;21.51;53.09;101156.66;698131;28;46346;-63
2021/06/28 00:28:50;;;;;;;5.47;4.72;;;;;;;21.51;53.02;101166.81;698352;28;34577;-63
2021/06/28 00:29:11;;;;;;;5.30;4.80;;;;;;;21.50;53.07;101159.66;699202;28;22402;-63
2021/06/28 00:29:32;;;;;;;4.90;4.45;;;;;;;21.48;53.09;101162.59;698561;28;10096;-63
2021/06/28 00:29:53;;;;;;;5.07;4.65;;;;;;;21.48;53.17;101162.59;699056;28;20914;-63
2021/06/28 00:30:18;;;;;;;5.75;5.10;;;;;;;21.47;53.08;101154.59;698562;28;22408;-63
2021/06/28 00:30:41;;;;;;;5.38;4.88;;;;;;;21.46;53.32;101163.91;695118;28;116347;-63
2021/06/28 00:31:04;;;;;;;5.00;4.50;;;;;;;21.45;53.14;101157.59;696361;28;69703;-63
2021/06/28 00:31:26;;;;;;;5.05;4.65;;;;;;;21.45;53.27;101159.50;697292;28;68644;-63
2021/06/28 00:31:49;;;;;;;5.38;4.93;;;;;;;21.45;53.19;101163.06;698310;28;46326;-63
2021/06/28 00:32:11;;;;;;;5.90;5.13;;;;;;;21.44;53.16;101155.91;699124;28;15029;-63
2021/06/28 00:32:32;;;;;;;5.53;5.03;;;;;;;21.43;53.08;101165.25;699578;28;1144;-63
2021/06/28 00:32:55;;;;;;;5.70;4.90;;;;;;;21.42;53.45;101163.56;699571;28;23523;-63
2021/06/28 00:33:18;;;;;;;5.43;4.80;;;;;;;21.43;53.19;101163.31;697674;28;67520;-63
2021/06/28 00:33:39;;;;;;;5.55;5.05;;;;;;;21.42;53.14;101163.56;699550;28;1734;-63
2021/06/28 00:34:11;;;;;;;5.10;4.70;;;;;;;21.41;53.24;101167.38;696360;28;98628;-63
2021/06/28 00:34:32;;;;;;;5.10;4.70;;;;;;;21.41;53.23;101156.38;698581;28;46400;-63
2021/06/28 00:34:53;;;;;;;5.15;4.68;;;;;;;21.39;53.26;101158.53;699325;28;21644;-63
2021/06/28 00:35:17;;;;;;;5.38;4.88;;;;;;;21.39;53.07;101164.88;699357;28;22417;-63
2021/06/28 00:35:40;;;;;;;5.60;5.10;;;;;;;21.38;53.04;101163.22;697657;28;69214;-61
2021/06/28 00:36:12;;;;;;;5.55;5.00;;;;;;;21.38;53.13;101165.97;698412;28;60546;-63
2021/06/28 00:36:33;;;;;;;5.53;4.90;;;;;;;21.37;53.16;101160.69;698028;28;64257;-63
2021/06/28 00:36:54;;;;;;;5.47;4.97;;;;;;;21.37;53.04;101156.03;698459;28;21603;-63
2021/06/28 00:37:15;;;;;;;5.65;5.15;;;;;;;21.36;53.10;101159.00;699518;28;18150;-63
2021/06/28 00:37:41;;;;;;;5.43;4.93;;;;;;;21.36;53.08;101162.63;700240;28;14978;-62
2021/06/28 00:38:03;;;;;;;5.25;4.85;;;;;;;21.36;53.16;101154.38;700844;28;973;-63
2021/06/28 00:38:24;;;;;;;5.28;4.88;;;;;;;21.37;53.15;101167.03;698224;28;30529;-62
2021/06/28 00:38:46;;;;;;;5.45;5.00;;;;;;;21.37;53.12;101160.69;700640;28;1557;-63
2021/06/28 00:39:08;;;;;;;5.78;5.20;;;;;;;21.36;53.37;101165.38;700276;28;1505;-63
2021/06/28 00:39:29;;;;;;;5.85;5.13;;;;;;;21.37;53.25;101158.78;698616;28;44400;-63
2021/06/28 00:39:50;;;;;;;5.63;5.15;;;;;;;21.34;53.13;101153.75;699496;28;18027;-63
2021/06/28 00:40:13;;;;;;;5.60;5.10;;;;;;;21.37;53.24;101163.44;699762;28;19690;-63
2021/06/28 00:40:36;;;;;;;6.32;5.05;;;;;;;21.36;53.33;101159.88;698278;28;45297;-63
2021/06/28 00:40:57;;;;;;;5.22;4.60;;;;;;;21.36;53.30;101161.75;697940;28;67517;-63
2021/06/28 00:41:18;;;;;;;5.50;5.00;;;;;;;21.35;53.34;101162.84;699237;28;43288;-63
2021/06/28 00:41:39;;;;;;;5.30;4.90;;;;;;;21.34;53.38;101166.66;698911;28;45265;-63
2021/06/28 00:42:00;;;;;;;5.40;4.90;;;;;;;21.32;53.15;101153.16;699437;28;22373;-63
2021/06/28 00:42:24;;;;;;;5.28;4.82;;;;;;;21.32;53.36;101161.41;700244;28;21532;-63
2021/06/28 00:42:47;;;;;;;5.15;4.75;;;;;;;21.34;53.38;101166.66;698290;28;58912;-63
2021/06/28 00:43:08;;;;;;;5.35;4.95;;;;;;;21.33;53.22;101165.84;698192;28;67877;-63
2021/06/28 00:43:29;;;;;;;5.45;5.05;;;;;;;21.33;53.38;101159.50;700142;28;23522;-63
2021/06/28 00:43:50;;;;;;;5.47;5.05;;;;;;;21.34;53.44;101158.44;699329;28;23463;-63
2021/06/28 00:44:12;;;;;;;5.13;4.72;;;;;;;21.34;53.52;101161.19;698970;28;23563;-62
2021/06/28 00:44:34;;;;;;;5.05;4.65;;;;;;;21.33;53.24;101160.34;699572;28;46286;-63
2021/06/28 00:44:55;;;;;;;5.45;5.03;;;;;;;21.33;53.30;101156.75;698674;28;21296;-63
2021/06/28 00:45:21;;;;;;;5.63;5.15;;;;;;;21.33;53.48;101162.25;698709;28;22497;-63
2021/06/28 00:45:44;;;;;;;5.07;4.68;;;;;;;21.33;53.19;101154.00;695586;28;131959;-63
2021/06/28 00:46:06;;;;;;;5.13;4.72;;;;;;;21.33;53.33;101162.25;698260;28;44180;-63
2021/06/28 00:46:27;;;;;;;5.30;4.90;;;;;;;21.33;53.36;101160.34;697025;28;69430;-62
2021/06/28 00:46:48;;;;;;;5.30;4.90;;;;;;;21.34;53.48;101163.91;699605;28;22424;-63
2021/06/28 00:47:09;;;;;;;5.28;4.80;;;;;;;21.34;53.35;101161.19;699272;28;21537;-63
2021/06/28 00:47:30;;;;;;;5.50;5.00;;;;;;;21.34;53.31;101166.66;700492;28;902;-63
2021/06/28 00:47:54;;;;;;;5.20;4.80;;;;;;;21.34;53.24;101163.91;700093;28;13153;-62
2021/06/28 00:48:16;;;;;;;5.40;5.00;;;;;;;21.33;53.43;101164.97;696945;28;65026;-63
2021/06/28 00:48:37;;;;;;;5.45;4.95;;;;;;;21.34;53.29;101167.50;699712;28;23037;-63
2021/06/28 00:48:59;;;;;;;5.13;4.72;;;;;;;21.34;52.87;101164.75;700178;28;1040;-63
2021/06/28 00:49:25;;;;;;;5.50;5.00;;;;;;;21.35;53.52;101160.09;698248;28;38066;-63
2021/06/28 00:49:46;;;;;;;5.43;5.00;;;;;;;21.34;53.47;101156.50;698702;28;41847;-63
2021/06/28 00:50:08;;;;;;;5.35;4.95;;;;;;;21.34;53.36;101159.25;700381;28;23838;-63
2021/06/28 00:50:30;;;;;;;5.50;5.00;;;;;;;21.36;53.32;101167.25;698024;28;45172;-63
2021/06/28 00:50:54;;;;;;;6.93;5.03;;;;;;;21.35;53.39;101160.94;698277;28;42856;-63
2021/06/28 00:51:15;;;;;;;9.40;5.18;;;;;;;21.35;53.18;101160.94;696842;28;92555;-63
2021/06/28 00:51:36;;;;;;;5.75;5.15;;;;;;;21.35;53.38;101158.19;699395;28;22389;-63
2021/06/28 00:51:57;;;;;;;5.38;4.97;;;;;;;21.36;53.33;101161.75;699484;28;5812;-63
2021/06/28 00:52:18;;;;;;;5.40;4.90;;;;;;;21.35;53.40;101160.09;699367;28;22200;-63
2021/06/28 00:52:41;;;;;;;5.50;4.93;;;;;;;21.36;53.36;101161.75;699162;28;21525;-63
2021/06/28 00:53:05;;;;;;;5.55;5.15;;;;;;;21.35;53.57;101155.44;697998;28;69443;-63
2021/06/28 00:53:26;;;;;;;5.57;5.07;;;;;;;21.35;53.37;101160.09;697621;28;88764;-63
2021/06/28 00:53:48;;;;;;;5.30;4.80;;;;;;;21.34;53.50;101161.19;699207;28;4873;-63
2021/06/28 00:54:09;;;;;;;5.55;5.05;;;;;;;21.34;53.44;101161.19;697826;28;46401;-63
2021/06/28 00:54:30;;;;;;;6.22;5.20;;;;;;;21.36;53.49;101156.28;698763;28;21075;-63
2021/06/28 00:54:51;;;;;;;6.43;4.90;;;;;;;21.36;53.45;101159.00;699297;28;23484;-63
2021/06/28 00:55:13;;;;;;;5.85;5.25;;;;;;;21.35;53.55;101158.19;698337;28;23455;-63
2021/06/28 00:55:34;;;;;;;5.55;5.15;;;;;;;21.36;53.48;101164.50;699206;28;19145;-63
2021/06/28 00:56:08;;;;;;;5.47;5.05;;;;;;;21.37;53.31;101166.19;700396;28;5647;-63
2021/06/28 00:56:29;;;;;;;5.95;5.40;;;;;;;21.36;53.39;101156.28;696006;28;135668;-63
2021/06/28 00:56:51;;;;;;;6.38;5.30;;;;;;;21.38;53.41;101160.47;700002;28;15324;-63
2021/06/28 00:57:12;;;;;;;5.90;5.33;;;;;;;21.39;53.42;101164.88;698712;28;45034;-63
2021/06/28 00:57:33;;;;;;;6.20;5.60;;;;;;;21.39;53.34;101161.28;698217;28;44331;-63
2021/06/28 00:57:55;;;;;;;6.80;5.60;;;;;;;21.40;53.32;101163.78;699586;28;23482;-63
2021/06/28 00:58:16;;;;;;;6.55;5.40;;;;;;;21.39;53.29;101153.91;698740;28;45173;-63
2021/06/28 00:58:38;;;;;;;5.82;5.32;;;;;;;21.39;53.33;101162.13;699698;28;21549;-63
2021/06/28 00:58:59;;;;;;;5.97;5.20;;;;;;;21.38;53.31;101162.38;697971;28;46452;-63
2021/06/28 00:59:25;;;;;;;5.25;4.85;;;;;;;21.38;53.27;101170.63;699884;28;1699;-63
2021/06/28 00:59:46;;;;;;;5.32;4.93;;;;;;;21.37;53.18;101161.53;698966;28;54373;-63
2021/06/28 01:00:09;;;;;;;5.27;4.87;;;;;;;21.36;53.30;101159.00;699055;28;46331;-63
2021/06/28 01:00:33;;;;;;;5.93;5.32;;;;;;;21.36;53.23;101161.75;697857;28;61494;-63
2021/06/28 01:00:55;;;;;;;6.40;5.10;;;;;;;21.36;53.21;101161.75;699393;28;9564;-63
2021/06/28 01:01:19;;;;;;;7.25;5.43;;;;;;;21.36;53.26;101161.75;699234;28;15235;-63
2021/06/28 01:01:40;;;;;;;5.55;5.05;;;;;;;21.35;53.15;101162.84;698729;28;47449;-63
2021/06/28 01:02:02;;;;;;;5.40;5.00;;;;;;;21.33;53.13;101160.34;699000;28;22420;-63
2021/06/28 01:02:23;;;;;;;5.50;5.00;;;;;;;21.33;53.24;101162.25;700443;28;894;-63
2021/06/28 01:02:45;;;;;;;5.45;4.95;;;;;;;21.32;53.09;101161.41;699573;28;17353;-63
2021/06/28 01:03:07;;;;;;;5.55;5.13;;;;;;;21.32;53.23;101157.84;698839;28;46465;-63
2021/06/28 01:03:29;;;;;;;5.60;5.10;;;;;;;21.32;53.16;101158.66;699868;28;1234;-63
2021/06/28 01:03:50;;;;;;;5.32;4.82;;;;;;;21.31;53.15;101156.97;700229;28;1564;-63
2021/06/28 01:04:12;;;;;;;5.38;4.88;;;;;;;21.29;53.02;101152.81;698321;28;23367;-63
2021/06/28 01:04:35;;;;;;;5.10;4.75;;;;;;;21.29;53.13;101156.41;700165;28;15025;-63
2021/06/28 01:05:05;;;;;;;5.70;5.20;;;;;;;21.29;53.06;101161.06;698401;28;61733;-63
2021/06/28 01:05:30;;;;;;;5.80;5.30;;;;;;;21.29;53.17;101158.31;697504;28;70413;-63
2021/06/28 01:05:53;;;;;;;5.50;5.00;;;;;;;21.28;53.13;101160.22;697886;28;60928;-63
2021/06/28 01:06:17;;;;;;;5.28;4.88;;;;;;;21.30;53.27;101154.47;699006;28;37968;-63
2021/06/28 01:06:38;;;;;;;5.28;4.88;;;;;;;21.29;53.04;101158.31;699775;28;23508;-63
2021/06/28 01:07:00;;;;;;;5.32;4.93;;;;;;;21.29;53.09;101153.66;700521;28;1436;-63
2021/06/28 01:07:21;;;;;;;5.40;5.00;;;;;;;21.30;53.11;101155.31;699679;28;23891;-63
2021/06/28 01:07:43;;;;;;;5.28;4.82;;;;;;;21.30;53.04;101152.59;700242;28;14779;-63
2021/06/28 01:08:06;;;;;;;5.75;5.10;;;;;;;21.30;52.95;101155.31;698479;28;46015;-63
2021/06/28 01:08:27;;;;;;;6.47;5.03;;;;;;;21.31;53.09;101156.97;696913;28;69517;-63
2021/06/28 01:08:48;;;;;;;6.30;5.00;;;;;;;21.31;52.95;101156.97;699865;28;1510;-63
2021/06/28 01:09:09;;;;;;;5.38;4.88;;;;;;;21.32;53.19;101152.34;698871;28;23428;-63
2021/06/28 01:09:30;;;;;;;5.18;4.80;;;;;;;21.32;53.06;101155.09;699293;28;20864;-63
2021/06/28 01:09:51;;;;;;;5.32;4.90;;;;;;;21.32;53.15;101158.66;698936;28;22403;-63
2021/06/28 01:10:15;;;;;;;5.10;4.70;;;;;;;21.32;53.10;101155.91;699647;28;21212;-63
2021/06/28 01:10:37;;;;;;;5.00;4.60;;;;;;;21.33;53.06;101162.25;696011;28;93086;-63
2021/06/28 01:10:59;;;;;;;5.00;4.60;;;;;;;21.31;53.16;101156.16;697593;28;70198;-63
2021/06/28 01:11:20;;;;;;;5.28;4.70;;;;;;;21.32;53.10;101160.59;699265;28;41108;-63
2021/06/28 01:11:42;;;;;;;6.65;5.00;;;;;;;21.31;53.28;101151.50;696819;28;7541;-63
2021/06/28 01:12:04;;;;;;;6.05;4.93;;;;;;;21.30;53.29;101155.31;696691;28;1915;-63
2021/06/28 01:12:25;;;;;;;5.57;5.00;;;;;;;21.30;53.22;101159.97;695196;28;46392;-63
2021/06/28 01:12:48;;;;;;;5.55;5.05;;;;;;;21.29;53.19;101158.31;697622;28;961;-63
2021/06/28 01:13:10;;;;;;;5.88;5.38;;;;;;;21.28;53.44;101160.22;695021;28;52330;-63
2021/06/28 01:13:33;;;;;;;5.40;5.00;;;;;;;21.28;53.40;101153.88;696910;28;39368;-63
2021/06/28 01:13:54;;;;;;;5.40;4.90;;;;;;;21.27;53.31;101149.44;697829;28;43285;-63
2021/06/28 01:14:15;;;;;;;5.63;5.13;;;;;;;21.27;53.29;101157.69;698740;28;44187;-63
2021/06/28 01:14:37;;;;;;;5.68;5.18;;;;;;;21.26;53.38;101159.63;699413;28;21534;-63
2021/06/28 01:15:00;;;;;;;5.45;5.05;;;;;;;21.26;53.15;101154.13;698351;28;16583;-63
2021/06/28 01:15:23;;;;;;;6.53;5.05;;;;;;;21.24;53.45;101159.84;699365;28;38710;-63
2021/06/28 01:15:46;;;;;;;5.50;5.10;;;;;;;21.24;53.41;101157.09;699749;28;1790;-63
2021/06/28 01:16:08;;;;;;;5.10;4.70;;;;;;;21.23;53.35;101149.09;696677;28;1256;-63
2021/06/28 01:16:31;;;;;;;6.03;5.28;;;;;;;21.22;53.42;101159.25;695860;28;46404;-63
2021/06/28 01:16:53;;;;;;;6.10;5.22;;;;;;;21.22;53.41;101162.00;694205;28;93236;-63
2021/06/28 01:17:15;;;;;;;5.10;4.70;;;;;;;21.21;53.33;101156.75;695228;28;22056;-63
2021/06/28 01:17:37;;;;;;;5.68;5.28;;;;;;;21.20;53.51;101155.91;695523;28;63990;-63
2021/06/28 01:18:06;;;;;;;5.22;4.90;;;;;;;21.20;53.53;101164.13;696582;28;61806;-63
2021/06/28 01:18:28;;;;;;;5.38;4.97;;;;;;;21.18;53.48;101160.81;695965;28;113097;-63
2021/06/28 01:18:49;;;;;;;5.28;4.88;;;;;;;21.19;53.45;101164.38;699132;28;9118;-63
2021/06/28 01:19:12;;;;;;;5.32;4.85;;;;;;;21.20;53.54;101163.31;699150;28;22391;-63
2021/06/28 01:19:45;;;;;;;5.78;5.10;;;;;;;21.19;53.46;101159.75;698183;28;60770;-63
2021/06/28 01:20:10;;;;;;;5.43;5.00;;;;;;;21.21;53.47;101162.25;697859;28;61538;-63
2021/06/28 01:20:33;;;;;;;5.40;4.90;;;;;;;21.20;53.50;101164.13;695094;28;116127;-63
2021/06/28 01:20:55;;;;;;;5.22;4.82;;;;;;;21.18;53.62;101159.97;699728;28;839;-63
2021/06/28 01:21:18;;;;;;;5.20;4.80;;;;;;;21.19;53.78;101157.00;700488;28;898;-63
2021/06/28 01:21:51;;;;;;;5.97;5.47;;;;;;;21.18;53.57;101160.81;697222;28;98571;-63
2021/06/28 01:22:14;;;;;;;5.43;4.93;;;;;;;21.18;53.62;101158.06;698155;28;61481;-63
2021/06/28 01:22:38;;;;;;;5.47;5.07;;;;;;;21.17;53.60;101167.34;699144;28;44042;-63
2021/06/28 01:23:13;;;;;;;5.40;5.00;;;;;;;21.16;53.65;101156.59;696731;28;78507;-63
2021/06/28 01:23:44;;;;;;;5.38;4.88;;;;;;;21.16;53.92;101162.09;697920;28;61374;-63
2021/06/28 01:24:05;;;;;;;5.28;4.85;;;;;;;21.15;53.87;101158.53;698718;28;24419;-63
2021/06/28 01:24:26;;;;;;;5.47;5.07;;;;;;;21.15;53.69;101161.28;698709;28;29861;-63
2021/06/28 01:24:48;;;;;;;6.00;5.40;;;;;;;21.14;53.72;101156.03;698944;28;46374;-63
2021/06/28 01:25:12;;;;;;;5.70;5.20;;;;;;;21.10;53.73;101158.41;695228;28;44079;-63
2021/06/28 01:25:33;;;;;;;5.30;4.90;;;;;;;21.12;53.85;101159.00;696132;28;46619;-63
2021/06/28 01:25:56;;;;;;;5.65;5.25;;;;;;;21.11;53.80;101154.56;696720;28;7139;-63
2021/06/28 01:26:18;;;;;;;5.28;4.85;;;;;;;21.11;53.68;101154.56;695272;28;61343;-63
2021/06/28 01:26:39;;;;;;;5.13;4.70;;;;;;;21.11;53.70;101157.31;696188;28;35613;-63
2021/06/28 01:27:02;;;;;;;5.57;5.07;;;;;;;21.12;53.80;101155.44;698570;28;1768;-63
2021/06/28 01:27:29;;;;;;;5.68;5.18;;;;;;;21.12;53.69;101152.69;697357;28;60840;-63
2021/06/28 01:27:51;;;;;;;5.50;5.10;;;;;;;21.11;53.74;101154.56;697599;28;45275;-63
2021/06/28 01:28:13;;;;;;;5.97;5.35;;;;;;;21.11;53.60;101153.75;698543;28;44014;-63
2021/06/28 01:28:34;;;;;;;5.60;5.10;;;;;;;21.11;53.55;101156.50;695048;28;45276;-63
2021/06/28 01:28:56;;;;;;;5.28;4.88;;;;;;;21.10;53.71;101158.41;694798;28;39096;-63
2021/06/28 01:29:17;;;;;;;5.25;4.85;;;;;;;21.10;53.60;101158.41;696889;28;23464;-63
2021/06/28 01:29:38;;;;;;;6.03;5.10;;;;;;;21.11;53.51;101160.06;696941;28;8160;-63
2021/06/28 01:30:00;;;;;;;5.63;5.10;;;;;;;21.11;53.59;101154.56;696532;28;23552;-63
2021/06/28 01:30:26;;;;;;;5.63;5.20;;;;;;;21.11;53.62;101154.56;695634;28;47564;-63
2021/06/28 01:30:48;;;;;;;5.57;5.07;;;;;;;21.10;53.70;101155.66;695114;28;139255;-63
2021/06/28 01:31:12;;;;;;;5.32;4.93;;;;;;;21.11;53.91;101146.34;699062;28;40446;-63
2021/06/28 01:31:34;;;;;;;5.63;5.07;;;;;;;21.09;53.96;101155.91;696806;28;91658;-63
2021/06/28 01:31:55;;;;;;;7.25;5.35;;;;;;;21.07;53.94;101156.16;700081;28;1459;-63
2021/06/28 01:32:17;;;;;;;5.57;4.97;;;;;;;21.06;54.01;101154.47;699917;28;1704;-63
2021/06/28 01:32:38;;;;;;;5.97;5.22;;;;;;;21.02;54.15;101154.09;699827;28;23406;-63
2021/06/28 01:33:00;;;;;;;5.97;5.38;;;;;;;21.02;54.15;101150.53;699180;28;19626;-63
2021/06/28 01:33:22;;;;;;;5.45;5.00;;;;;;;21.01;54.24;101154.34;698750;28;45339;-63
2021/06/28 01:33:43;;;;;;;5.57;5.07;;;;;;;21.00;54.22;101149.91;697829;28;25881;-63
2021/06/28 01:34:05;;;;;;;5.38;4.97;;;;;;;20.99;54.44;101156.50;699579;28;1498;-63
2021/06/28 01:34:32;;;;;;;5.40;4.90;;;;;;;20.97;54.53;101153.13;695011;28;158537;-63
2021/06/28 01:34:53;;;;;;;5.40;4.97;;;;;;;20.95;54.51;101150.63;697307;28;46410;-63
2021/06/28 01:35:16;;;;;;;5.43;5.03;;;;;;;20.94;54.42;101154.47;699976;28;9270;-62
2021/06/28 01:35:40;;;;;;;5.35;4.95;;;;;;;20.94;54.69;101159.09;698239;28;46372;-63
2021/06/28 01:36:04;;;;;;;5.47;4.97;;;;;;;20.92;54.56;101159.31;695692;28;60977;-62
2021/06/28 01:36:25;;;;;;;5.70;5.20;;;;;;;20.92;54.51;101153.00;697474;28;61754;-63
2021/06/28 01:36:49;;;;;;;5.90;5.30;;;;;;;20.91;54.50;101152.19;700304;28;963;-62
2021/06/28 01:37:20;;;;;;;5.57;5.10;;;;;;;20.90;54.66;101156.00;698704;28;46318;-63
2021/06/28 01:37:42;;;;;;;6.00;5.20;;;;;;;20.91;54.71;101154.94;695390;28;135826;-63
2021/06/28 01:38:03;;;;;;;5.70;5.20;;;;;;;20.90;54.51;101157.91;699418;28;14046;-63
2021/06/28 01:38:26;;;;;;;5.75;5.00;;;;;;;20.90;54.69;101152.41;699441;28;30068;-63
2021/06/28 01:38:48;;;;;;;5.20;4.80;;;;;;;20.88;54.76;101153.47;698968;28;45300;-63
2021/06/28 01:39:09;;;;;;;5.70;5.20;;;;;;;20.90;54.43;101163.41;696928;28;62636;-63
2021/06/28 01:39:30;;;;;;;5.55;5.05;;;;;;;20.88;54.64;101153.47;698943;28;24493;-63
2021/06/28 01:39:54;;;;;;;5.88;5.35;;;;;;;20.88;54.64;101161.72;699405;28;21193;-63
2021/06/28 01:40:16;;;;;;;5.95;5.47;;;;;;;20.88;54.82;101161.72;697099;28;68797;-63
2021/06/28 01:40:39;;;;;;;5.80;5.18;;;;;;;20.88;54.72;101161.72;697877;28;45260;-63
2021/06/28 01:41:00;;;;;;;5.57;5.10;;;;;;;20.88;54.83;101161.72;697374;28;70324;-63
2021/06/28 01:41:21;;;;;;;6.13;5.10;;;;;;;20.88;54.64;101167.22;699453;28;23424;-63
2021/06/28 01:41:42;;;;;;;6.40;5.40;;;;;;;20.88;54.82;101158.97;699212;28;15103;-63
2021/06/28 01:42:04;;;;;;;5.57;5.18;;;;;;;20.88;54.73;101160.88;699512;28;23413;-63
2021/06/28 01:42:27;;;;;;;5.88;5.40;;;;;;;20.87;54.75;101165.53;698468;28;46214;-63
2021/06/28 01:42:49;;;;;;;6.15;5.43;;;;;;;20.86;54.84;101155.63;697299;28;69424;-63
2021/06/28 01:43:12;;;;;;;5.95;5.40;;;;;;;20.86;54.88;101158.38;697668;28;47370;-63
2021/06/28 01:43:33;;;;;;;5.77;5.03;;;;;;;20.87;54.86;101161.94;697570;28;66784;-63
2021/06/28 01:43:55;;;;;;;5.70;5.00;;;;;;;20.82;55.01;101154.41;697857;28;46316;-63
2021/06/28 01:44:16;;;;;;;5.82;5.32;;;;;;;20.85;54.96;101159.44;697660;28;45269;-63
2021/06/28 01:44:37;;;;;;;6.10;5.60;;;;;;;20.85;54.91;101156.69;698619;28;23445;-63
2021/06/28 01:44:58;;;;;;;5.57;5.07;;;;;;;20.85;54.98;101155.88;700101;28;996;-63
2021/06/28 01:45:22;;;;;;;5.88;5.28;;;;;;;20.83;55.09;101156.09;699275;28;23431;-63
2021/06/28 01:45:44;;;;;;;5.90;5.30;;;;;;;20.82;55.07;101151.69;699697;28;14904;-63